KEPH/EPH METAR and TAF weather

Enter ICAO airport designator
Station Type Date Time Source
KEPH METAR 2020/12/06 02:07 UTC NOAA

KEPH 060207Z AUTO 26005KT 1/4SM FZFG VV002 M04/M04 A3027 RMK AO2 I1001 T10391044


Station Type Date Time Source
KEPH Decoded METAR 2020/12/06 02:07 UTC NOAA

EPHRATA MUNICIPAL AIRPORT, WA, United States (KEPH) 47-18N 119-31W 383M
Dec 05, 2020 - 09:07 PM EST / 2020.12.06 0207 UTC
Wind: from the W (260 degrees) at 6 MPH (5 KT):0
Visibility: 1/4 mile(s):0
Sky conditions: obscured
Weather: freezing fog
Temperature: 25.0 F (-3.9 C)
Windchill: 17 F (-8 C):1
Dew Point: 24.1 F (-4.4 C)
Relative Humidity: 96%
Pressure (altimeter): 30.27 in. Hg (1025 hPa)
ob: KEPH 060207Z AUTO 26005KT 1/4SM FZFG VV002 M04/M04 A3027 RMK AO2 I1001 T10391044
cycle: 2

Station Type Date Time Source
KEPH TAF UTC NOAA

Error!

Example: see airport list